createdAt,value
2018-07-05T00:00:25.744Z,99683.47
2018-07-05T00:03:06.018Z,99674.56
2018-07-05T00:05:46.391Z,99671.64
2018-07-05T00:08:26.738Z,99674.95
2018-07-05T00:11:07.202Z,99672.48
2018-07-05T00:13:47.357Z,99674.63
2018-07-05T00:16:27.576Z,99672.50
2018-07-05T00:19:07.983Z,99672.41
2018-07-05T00:21:48.313Z,99675.91
2018-07-05T00:24:28.984Z,99668.42
2018-07-05T00:27:09.389Z,99666.84
2018-07-05T00:29:49.737Z,99666.03
2018-07-05T00:32:30.192Z,99669.11
2018-07-05T00:35:10.621Z,99665.95
2018-07-05T00:37:50.933Z,99664.14
2018-07-05T00:40:31.495Z,99674.80
2018-07-05T00:43:11.996Z,99672.18
2018-07-05T00:45:52.513Z,99673.80
2018-07-05T00:48:32.981Z,99671.89
2018-07-05T00:51:13.543Z,99675.28
2018-07-05T00:53:53.776Z,99665.80
2018-07-05T00:56:34.102Z,99669.67
2018-07-05T00:59:14.297Z,99661.32
2018-07-05T01:01:54.645Z,99659.97
2018-07-05T01:04:34.932Z,99659.97
2018-07-05T01:07:15.241Z,99668.69
2018-07-05T01:09:55.649Z,99664.73
2018-07-05T01:12:36.163Z,99659.77
2018-07-05T01:15:16.476Z,99664.05
2018-07-05T01:17:56.833Z,99667.91
2018-07-05T01:20:37.187Z,99662.23
2018-07-05T01:23:17.598Z,99659.52
2018-07-05T01:25:57.913Z,99655.48
2018-07-05T01:28:38.401Z,99653.47
2018-07-05T01:31:18.805Z,99655.73
2018-07-05T01:33:59.153Z,99656.39
2018-07-05T01:36:39.476Z,99659.02
2018-07-05T01:39:19.845Z,99666.16
2018-07-05T01:42:00.171Z,99666.28
2018-07-05T01:44:40.598Z,99667.42
2018-07-05T01:47:20.948Z,99679.39
2018-07-05T01:50:01.389Z,99674.98
2018-07-05T01:52:41.943Z,99671.58
2018-07-05T01:55:22.399Z,99672.72
2018-07-05T01:58:02.755Z,99668.55
2018-07-05T02:00:43.146Z,99673.85
2018-07-05T02:06:02.982Z,99669.36
2018-07-05T02:08:43.171Z,99667.76
2018-07-05T02:11:23.595Z,99670.02
2018-07-05T02:14:03.981Z,99671.83
2018-07-05T02:16:44.349Z,99675.00
2018-07-05T02:19:24.766Z,99672.50
2018-07-05T02:22:05.191Z,99666.64
2018-07-05T02:24:46.555Z,99666.28
2018-07-05T02:27:26.945Z,99666.86
2018-07-05T02:30:07.246Z,99660.75
2018-07-05T02:32:47.478Z,99666.30
2018-07-05T02:35:27.813Z,99667.53
2018-07-05T02:38:13.556Z,99667.51
2018-07-05T02:40:53.969Z,99666.73
2018-07-05T02:43:34.337Z,99653.73
2018-07-05T02:46:14.698Z,99657.56
2018-07-05T02:48:55.147Z,99664.23
2018-07-05T02:51:35.462Z,99662.19
2018-07-05T02:54:16.074Z,99655.28
2018-07-05T02:56:56.528Z,99660.25
2018-07-05T02:59:37.257Z,99660.95
2018-07-05T03:02:18.197Z,99655.73
2018-07-05T03:04:58.678Z,99657.66
2018-07-05T03:07:38.973Z,99663.42
2018-07-05T03:10:19.293Z,99659.10
2018-07-05T03:12:59.675Z,99661.81
2018-07-05T03:15:40.158Z,99655.03
2018-07-05T03:18:20.487Z,99658.32
2018-07-05T03:21:00.865Z,99659.67
2018-07-05T03:23:41.361Z,99666.09
2018-07-05T03:26:21.812Z,99662.48
2018-07-05T03:29:02.298Z,99662.93
2018-07-05T03:31:43.811Z,99664.86
2018-07-05T03:34:25.220Z,99659.09
2018-07-05T03:37:05.536Z,99662.59
2018-07-05T03:39:45.915Z,99661.00
2018-07-05T03:42:26.277Z,99654.45
2018-07-05T03:45:06.738Z,99661.81
2018-07-05T03:47:47.327Z,99655.23
2018-07-05T03:50:27.897Z,99656.80
2018-07-05T03:53:08.310Z,99648.78
2018-07-05T03:55:48.817Z,99649.23
2018-07-05T03:58:29.386Z,99651.13
2018-07-05T04:01:09.817Z,99651.61
2018-07-05T04:03:50.155Z,99648.53
2018-07-05T04:06:30.533Z,99653.42
2018-07-05T04:09:10.999Z,99657.66
2018-07-05T04:11:51.641Z,99661.19
2018-07-05T04:14:31.998Z,99657.86
2018-07-05T04:17:12.430Z,99658.22
2018-07-05T04:19:52.878Z,99657.64
2018-07-05T04:22:33.121Z,99656.41
2018-07-05T04:25:13.586Z,99657.64
2018-07-05T04:27:54.050Z,99667.16
2018-07-05T04:30:34.410Z,99665.39
2018-07-05T04:33:14.764Z,99661.97
2018-07-05T04:35:55.105Z,99661.59
2018-07-05T04:38:35.497Z,99664.89
2018-07-05T04:41:15.944Z,99663.08
2018-07-05T04:43:56.265Z,99663.53
2018-07-05T04:46:36.535Z,99656.97
2018-07-05T04:49:17.014Z,99655.82
2018-07-05T04:51:57.505Z,99654.58
2018-07-05T04:54:37.785Z,99657.36
2018-07-05T04:57:18.270Z,99663.31
2018-07-05T04:59:58.660Z,99666.78
2018-07-05T05:02:39.041Z,99658.63
2018-07-05T05:05:19.573Z,99661.30
2018-07-05T05:07:59.831Z,99658.23
2018-07-05T05:10:40.401Z,99662.42
2018-07-05T05:13:20.835Z,99661.92
2018-07-05T05:16:01.251Z,99664.04
2018-07-05T05:18:41.678Z,99662.15
2018-07-05T05:21:22.106Z,99658.00
2018-07-05T05:24:02.625Z,99660.89
2018-07-05T05:26:43.292Z,99655.29
2018-07-05T05:29:23.721Z,99655.87
2018-07-05T05:32:04.192Z,99662.86
2018-07-05T05:34:44.601Z,99657.27
2018-07-05T05:37:25.064Z,99656.91
2018-07-05T05:40:05.621Z,99662.45
2018-07-05T05:42:46.024Z,99665.68
2018-07-05T05:45:26.315Z,99657.41
2018-07-05T05:48:06.804Z,99665.44
2018-07-05T05:50:47.633Z,99657.69
2018-07-05T05:53:28.027Z,99659.61
2018-07-05T05:56:08.382Z,99662.08
2018-07-05T05:58:48.792Z,99658.20
2018-07-05T06:01:29.197Z,99654.57
2018-07-05T06:04:09.726Z,99655.30
2018-07-05T06:06:50.096Z,99652.61
2018-07-05T06:09:30.489Z,99650.03
2018-07-05T06:12:10.908Z,99646.89
2018-07-05T06:14:51.298Z,99649.81
2018-07-05T06:17:31.793Z,99657.06
2018-07-05T06:20:12.227Z,99656.52
2018-07-05T06:22:52.869Z,99659.48
2018-07-05T06:25:33.339Z,99658.03
2018-07-05T06:28:13.794Z,99655.92
2018-07-05T06:30:54.361Z,99649.15
2018-07-05T06:33:34.730Z,99645.94
2018-07-05T06:36:15.245Z,99641.42
2018-07-05T06:38:55.664Z,99644.63
2018-07-05T06:41:36.169Z,99643.91
2018-07-05T06:44:19.946Z,99646.06
2018-07-05T06:47:00.254Z,99649.92
2018-07-05T06:49:40.738Z,99649.41
2018-07-05T06:52:21.110Z,99646.60
2018-07-05T06:55:01.614Z,99640.27
2018-07-05T06:57:42.001Z,99639.59
2018-07-05T07:00:22.517Z,99640.11
2018-07-05T07:03:02.949Z,99634.97
2018-07-05T07:05:43.365Z,99638.68
2018-07-05T07:08:24.061Z,99639.58
2018-07-05T07:11:04.594Z,99631.80
2018-07-05T07:13:45.049Z,99631.45
2018-07-05T07:16:25.620Z,99633.77
2018-07-05T07:19:05.984Z,99631.80
2018-07-05T07:21:46.393Z,99627.11
2018-07-05T07:24:26.804Z,99624.45
2018-07-05T07:27:07.267Z,99630.39
2018-07-05T07:29:47.862Z,99629.52
2018-07-05T07:32:28.384Z,99626.52
2018-07-05T07:35:09.000Z,99627.33
2018-07-05T07:37:49.465Z,99621.84
2018-07-05T07:40:30.082Z,99615.97
2018-07-05T07:42:58.160Z,99614.55
2018-07-05T07:45:26.152Z,99612.91
2018-07-05T07:47:54.123Z,99615.29
2018-07-05T07:50:22.091Z,99610.33
2018-07-05T07:52:50.038Z,99601.41
2018-07-05T07:55:18.024Z,99600.22
2018-07-05T07:57:46.017Z,99593.36
2018-07-05T08:00:13.959Z,99591.21
2018-07-05T08:02:41.924Z,99595.34
2018-07-05T08:05:09.933Z,99594.39
2018-07-05T08:07:37.921Z,99595.27
2018-07-05T08:10:05.953Z,99592.41
2018-07-05T08:12:33.911Z,99588.87
2018-07-05T08:15:01.908Z,99584.41
2018-07-05T08:17:29.862Z,99581.73
2018-07-05T08:19:57.829Z,99581.43
2018-07-05T08:22:25.806Z,99574.78
2018-07-05T08:24:53.797Z,99574.50
2018-07-05T08:27:21.741Z,99575.69
2018-07-05T08:29:49.743Z,99574.11
2018-07-05T08:32:17.728Z,99573.47
2018-07-05T08:34:45.709Z,99577.86
2018-07-05T08:37:13.764Z,99578.17
2018-07-05T08:39:41.639Z,99568.06
2018-07-05T08:42:09.622Z,99569.72
2018-07-05T08:44:37.575Z,99567.77
2018-07-05T08:47:05.558Z,99570.31
2018-07-05T08:49:33.510Z,99563.78
2018-07-05T08:52:01.470Z,99561.64
2018-07-05T08:54:29.434Z,99560.05
2018-07-05T08:56:57.427Z,99557.27
2018-07-05T08:59:25.390Z,99557.60
2018-07-05T09:01:53.375Z,99559.30
2018-07-05T09:04:21.327Z,99560.09
2018-07-05T09:06:49.311Z,99557.69
2018-07-05T09:09:17.262Z,99557.48
2018-07-05T09:11:45.273Z,99551.41
2018-07-05T09:14:13.225Z,99543.34
2018-07-05T09:16:41.195Z,99544.20
2018-07-05T09:19:09.164Z,99540.39
2018-07-05T09:21:37.137Z,99532.66
2018-07-05T09:24:05.129Z,99532.66
2018-07-05T09:26:33.089Z,99531.01
2018-07-05T09:29:01.068Z,99527.00
2018-07-05T09:31:29.241Z,99522.52
2018-07-05T09:33:57.199Z,99520.67
2018-07-05T09:36:25.377Z,99510.20
2018-07-05T09:38:53.340Z,99511.63
2018-07-05T09:41:21.558Z,99509.52
2018-07-05T09:43:49.515Z,99495.08
2018-07-05T09:46:17.482Z,99505.34
2018-07-05T09:48:45.425Z,99498.54
2018-07-05T09:51:13.441Z,99500.80
2018-07-05T09:53:41.438Z,99498.17
2018-07-05T09:56:09.458Z,99501.64
2018-07-05T09:58:37.403Z,99500.41
2018-07-05T10:01:09.305Z,99500.11
2018-07-05T10:03:37.521Z,99490.08
2018-07-05T10:06:05.454Z,99483.55
2018-07-05T10:08:33.411Z,99490.75
2018-07-05T10:11:01.399Z,99495.61
2018-07-05T10:13:29.513Z,99485.61
2018-07-05T10:15:57.345Z,99476.70
2018-07-05T10:18:25.313Z,99474.48
2018-07-05T10:20:53.465Z,99470.09
2018-07-05T10:23:21.447Z,99463.42
2018-07-05T10:25:49.416Z,99454.50
2018-07-05T10:28:17.395Z,99452.40
2018-07-05T10:30:57.606Z,99446.73
2018-07-05T10:33:37.900Z,99446.20
2018-07-05T10:36:05.857Z,99444.63
2018-07-05T10:38:34.360Z,99451.13
2018-07-05T10:41:14.672Z,99445.23
2018-07-05T10:43:55.031Z,99441.12
2018-07-05T10:46:35.571Z,99433.84
2018-07-05T10:49:16.003Z,99455.38
2018-07-05T10:51:56.341Z,99446.08
2018-07-05T10:54:36.640Z,99452.61
2018-07-05T10:57:16.983Z,99448.38
2018-07-05T10:59:57.217Z,99446.73
2018-07-05T11:02:37.617Z,99441.76
2018-07-05T11:05:18.076Z,99439.71
2018-07-05T11:07:58.457Z,99438.83
2018-07-05T11:10:38.838Z,99439.98
2018-07-05T11:13:19.260Z,99433.83
2018-07-05T11:15:59.826Z,99437.63
2018-07-05T11:18:40.257Z,99425.91
2018-07-05T11:21:20.556Z,99419.44
2018-07-05T11:24:00.711Z,99415.61
2018-07-05T11:26:41.077Z,99411.98
2018-07-05T11:29:21.344Z,99417.09
2018-07-05T11:32:01.651Z,99413.77
2018-07-05T11:34:41.861Z,99408.72
2018-07-05T11:37:22.163Z,99406.85
2018-07-05T11:40:02.405Z,99402.68
2018-07-05T11:42:42.797Z,99403.20
2018-07-05T11:45:23.141Z,99393.67
2018-07-05T11:48:03.461Z,99396.28
2018-07-05T11:50:43.904Z,99396.42
2018-07-05T11:53:24.383Z,99397.13
2018-07-05T11:56:04.789Z,99397.10
2018-07-05T11:58:45.179Z,99390.28
2018-07-05T12:01:25.595Z,99389.72
2018-07-05T12:04:06.116Z,99383.14
2018-07-05T12:06:46.467Z,99369.94
2018-07-05T12:09:26.928Z,99366.98
2018-07-05T12:12:07.214Z,99363.23
2018-07-05T12:14:47.661Z,99369.23
2018-07-05T12:17:28.042Z,99371.45
2018-07-05T12:20:08.333Z,99365.88
2018-07-05T12:22:48.695Z,99374.22
2018-07-05T12:25:28.991Z,99365.66
2018-07-05T12:28:09.313Z,99352.94
2018-07-05T12:30:49.646Z,99355.16
2018-07-05T12:33:29.928Z,99348.44
2018-07-05T12:36:10.208Z,99341.91
2018-07-05T12:38:50.722Z,99341.84
2018-07-05T12:41:31.094Z,99326.42
2018-07-05T12:44:11.406Z,99329.73
2018-07-05T12:46:51.825Z,99340.88
2018-07-05T12:49:32.781Z,99337.84
2018-07-05T12:52:13.059Z,99330.91
2018-07-05T12:54:53.393Z,99330.00
2018-07-05T12:57:33.846Z,99324.38
2018-07-05T13:00:14.069Z,99318.99
2018-07-05T13:02:54.521Z,99310.16
2018-07-05T13:05:34.936Z,99299.97
2018-07-05T13:08:15.402Z,99306.84
2018-07-05T13:10:56.127Z,99302.84
2018-07-05T13:13:36.671Z,99307.10
2018-07-05T13:16:17.003Z,99308.86
2018-07-05T13:18:57.461Z,99312.30
2018-07-05T13:21:37.890Z,99311.59
2018-07-05T13:24:18.220Z,99314.30
2018-07-05T13:26:58.527Z,99311.75
2018-07-05T13:29:38.823Z,99309.87
2018-07-05T13:32:19.367Z,99308.09
2018-07-05T13:34:59.675Z,99306.03
2018-07-05T13:37:39.889Z,99292.77
2018-07-05T13:40:20.269Z,99302.48
2018-07-05T13:43:00.739Z,99292.09
2018-07-05T13:45:41.207Z,99295.30
2018-07-05T13:48:21.470Z,99295.95
2018-07-05T13:51:01.858Z,99283.06
2018-07-05T13:53:42.278Z,99285.39
2018-07-05T13:56:22.613Z,99280.11
2018-07-05T13:59:02.921Z,99271.22
2018-07-05T14:01:43.359Z,99276.50
2018-07-05T14:04:23.716Z,99286.47
2018-07-05T14:07:04.345Z,99277.59
2018-07-05T14:09:44.643Z,99275.55
2018-07-05T14:12:24.933Z,99284.81
2018-07-05T14:15:05.363Z,99278.89
2018-07-05T14:17:45.738Z,99274.41
2018-07-05T14:20:26.101Z,99264.73
2018-07-05T14:23:06.430Z,99278.16
2018-07-05T14:25:46.835Z,99273.50
2018-07-05T14:28:27.386Z,99280.74
2018-07-05T14:31:07.730Z,99279.85
2018-07-05T14:33:48.074Z,99275.78
2018-07-05T14:36:28.511Z,99269.08
2018-07-05T14:39:09.137Z,99264.78
2018-07-05T14:41:49.704Z,99253.20
2018-07-05T14:44:30.038Z,99264.27
2018-07-05T14:47:10.561Z,99262.52
2018-07-05T14:49:50.832Z,99265.19
2018-07-05T14:52:31.137Z,99268.52
2018-07-05T14:55:11.370Z,99276.73
2018-07-05T14:57:51.747Z,99273.50
2018-07-05T15:00:32.084Z,99269.91
2018-07-05T15:03:12.581Z,99269.81
2018-07-05T15:05:52.956Z,99269.31
2018-07-05T15:08:33.481Z,99267.97
2018-07-05T15:11:13.745Z,99275.44
2018-07-05T15:13:54.094Z,99277.36
2018-07-05T15:16:34.369Z,99279.30
2018-07-05T15:19:14.669Z,99288.97
2018-07-05T15:21:55.006Z,99278.33
2018-07-05T15:24:35.436Z,99275.58
2018-07-05T15:27:15.812Z,99268.50
2018-07-05T15:29:56.182Z,99272.22
2018-07-05T15:32:36.593Z,99278.34
2018-07-05T15:35:16.790Z,99274.58
2018-07-05T15:37:57.205Z,99268.74
2018-07-05T15:40:37.502Z,99271.30
2018-07-05T15:43:17.830Z,99263.84
2018-07-05T15:45:58.223Z,99269.86
2018-07-05T15:48:38.527Z,99276.80
2018-07-05T15:51:18.859Z,99275.55
2018-07-05T15:53:59.227Z,99273.88
2018-07-05T15:56:39.721Z,99273.14
2018-07-05T15:59:20.025Z,99274.17
2018-07-05T16:02:00.316Z,99272.59
2018-07-05T16:04:40.664Z,99279.69
2018-07-05T16:07:21.025Z,99293.22
2018-07-05T16:10:01.420Z,99288.91
2018-07-05T16:12:41.773Z,99294.53
2018-07-05T16:15:22.214Z,99285.20
2018-07-05T16:18:02.543Z,99273.42
2018-07-05T16:20:42.928Z,99274.89
2018-07-05T16:23:23.352Z,99277.87
2018-07-05T16:26:03.757Z,99281.56
2018-07-05T16:28:44.248Z,99282.73
2018-07-05T16:31:24.557Z,99279.59
2018-07-05T16:34:04.814Z,99289.88
2018-07-05T16:36:45.053Z,99296.90
2018-07-05T16:39:25.457Z,99294.81
2018-07-05T16:42:05.926Z,99293.27
2018-07-05T16:44:46.345Z,99298.88
2018-07-05T16:47:26.646Z,99292.62
2018-07-05T16:50:07.085Z,99299.84
2018-07-05T16:52:47.606Z,99310.53
2018-07-05T16:55:27.962Z,99306.23
2018-07-05T16:58:08.265Z,99306.55
2018-07-05T17:00:48.613Z,99317.08
2018-07-05T17:03:28.985Z,99314.66
2018-07-05T17:06:09.297Z,99316.88
2018-07-05T17:08:49.618Z,99325.36
2018-07-05T17:11:29.988Z,99325.46
2018-07-05T17:14:10.708Z,99323.57
2018-07-05T17:16:51.095Z,99326.94
2018-07-05T17:19:31.489Z,99334.00
2018-07-05T17:22:11.853Z,99337.44
2018-07-05T17:24:52.233Z,99343.45
2018-07-05T17:27:32.777Z,99344.83
2018-07-05T17:30:13.391Z,99344.76
2018-07-05T17:32:54.239Z,99348.20
2018-07-05T17:35:34.729Z,99346.23
2018-07-05T17:38:15.169Z,99345.70
2018-07-05T17:40:55.738Z,99365.21
2018-07-05T17:43:36.244Z,99359.73
2018-07-05T17:46:16.742Z,99366.05
2018-07-05T17:48:57.157Z,99363.84
2018-07-05T17:51:37.565Z,99376.24
2018-07-05T17:54:18.041Z,99382.50
2018-07-05T17:56:58.449Z,99390.92
2018-07-05T17:59:38.889Z,99403.25
2018-07-05T18:02:19.512Z,99413.69
2018-07-05T18:04:59.769Z,99426.15
2018-07-05T18:07:40.041Z,99427.66
2018-07-05T18:10:20.501Z,99427.43
2018-07-05T18:13:00.867Z,99439.05
2018-07-05T18:15:41.426Z,99449.32
2018-07-05T18:18:22.121Z,99454.91
2018-07-05T18:21:03.389Z,99457.84
2018-07-05T18:23:43.874Z,99459.65
2018-07-05T18:26:24.398Z,99462.63
2018-07-05T18:29:05.050Z,99467.25
2018-07-05T18:31:45.884Z,99468.19
2018-07-05T18:34:26.496Z,99471.48
2018-07-05T18:37:06.781Z,99468.88
2018-07-05T18:39:47.219Z,99473.60
2018-07-05T18:42:27.519Z,99474.09
2018-07-05T18:45:07.875Z,99478.75
2018-07-05T18:47:48.265Z,99481.16
2018-07-05T18:50:28.640Z,99485.84
2018-07-05T18:53:09.010Z,99484.64
2018-07-05T18:55:49.411Z,99498.95
2018-07-05T18:58:30.121Z,99489.59
2018-07-05T19:01:10.578Z,99494.55
2018-07-05T19:03:50.986Z,99493.23
2018-07-05T19:06:31.421Z,99495.44
2018-07-05T19:09:11.776Z,99502.56
2018-07-05T19:11:52.136Z,99508.70
2018-07-05T19:14:32.509Z,99516.38
2018-07-05T19:17:12.934Z,99525.58
2018-07-05T19:19:53.240Z,99532.75
2018-07-05T19:22:33.553Z,99529.84
2018-07-05T19:25:14.056Z,99534.95
2018-07-05T19:27:54.589Z,99544.37
2018-07-05T19:30:34.914Z,99550.28
2018-07-05T19:33:15.288Z,99551.09
2018-07-05T19:35:56.378Z,99560.30
2018-07-05T19:38:36.877Z,99559.32
2018-07-05T19:41:17.571Z,99568.70
2018-07-05T19:43:58.056Z,99564.58
2018-07-05T19:46:38.739Z,99572.98
2018-07-05T19:49:19.225Z,99567.70
2018-07-05T19:51:59.620Z,99563.55
2018-07-05T19:54:40.004Z,99567.28
2018-07-05T19:57:20.316Z,99566.46
2018-07-05T20:00:00.702Z,99562.36
2018-07-05T20:02:41.039Z,99568.97
2018-07-05T20:05:21.385Z,99572.14
2018-07-05T20:08:01.673Z,99583.61
2018-07-05T20:10:42.087Z,99598.09
2018-07-05T20:13:22.588Z,99599.80
2018-07-05T20:16:03.231Z,99600.95
2018-07-05T20:18:43.550Z,99609.55
2018-07-05T20:21:23.929Z,99607.36
2018-07-05T20:24:04.464Z,99607.77
2018-07-05T20:26:45.559Z,99609.73
2018-07-05T20:29:25.911Z,99609.29
2018-07-05T20:32:06.390Z,99622.58
2018-07-05T20:34:46.697Z,99620.02
2018-07-05T20:37:27.006Z,99618.02
2018-07-05T20:40:07.445Z,99619.39
2018-07-05T20:42:47.840Z,99631.30
2018-07-05T20:45:28.429Z,99627.84
2018-07-05T20:48:09.070Z,99632.95
2018-07-05T20:50:49.700Z,99622.28
2018-07-05T20:53:29.959Z,99626.16
2018-07-05T20:56:10.326Z,99626.87
2018-07-05T20:58:50.776Z,99625.27
2018-07-05T21:01:31.340Z,99621.75
2018-07-05T21:04:11.918Z,99625.09
2018-07-05T21:06:52.371Z,99627.05
2018-07-05T21:09:32.754Z,99630.27
2018-07-05T21:12:13.177Z,99627.86
2018-07-05T21:14:53.677Z,99636.16
2018-07-05T21:17:34.097Z,99639.05
2018-07-05T21:20:14.474Z,99638.20
2018-07-05T21:22:54.949Z,99640.63
2018-07-05T21:25:35.316Z,99640.28
2018-07-05T21:28:15.531Z,99636.47
2018-07-05T21:30:55.980Z,99639.20
2018-07-05T21:33:36.393Z,99638.53
2018-07-05T21:36:17.103Z,99644.03
2018-07-05T21:38:57.416Z,99644.72
2018-07-05T21:41:37.849Z,99652.69
2018-07-05T21:44:18.167Z,99650.52
2018-07-05T21:46:58.476Z,99655.95
2018-07-05T21:49:38.756Z,99657.11
2018-07-05T21:52:19.077Z,99661.50
2018-07-05T21:54:59.523Z,99661.41
2018-07-05T21:57:39.814Z,99664.34
2018-07-05T22:00:20.293Z,99662.39
2018-07-05T22:03:00.753Z,99660.56
2018-07-05T22:05:41.423Z,99662.17
2018-07-05T22:08:22.004Z,99657.39
2018-07-05T22:11:02.274Z,99665.69
2018-07-05T22:13:42.665Z,99667.63
2018-07-05T22:16:23.152Z,99663.27
2018-07-05T22:19:08.961Z,99668.30
2018-07-05T22:22:56.882Z,99668.38
2018-07-05T22:25:42.845Z,99667.75
2018-07-05T22:28:28.783Z,99667.36
2018-07-05T22:31:14.803Z,99667.31
2018-07-05T22:33:55.321Z,99665.17
2018-07-05T22:36:35.739Z,99674.16
2018-07-05T22:39:16.573Z,99678.02
2018-07-05T22:41:57.049Z,99678.31
2018-07-05T22:44:37.539Z,99684.94
2018-07-05T22:47:18.108Z,99690.25
2018-07-05T22:49:58.453Z,99685.00
2018-07-05T22:52:38.805Z,99690.95
2018-07-05T22:55:19.205Z,99696.05
2018-07-05T22:57:59.645Z,99704.09
2018-07-05T23:00:40.081Z,99703.31
2018-07-05T23:03:20.510Z,99704.67
2018-07-05T23:06:01.080Z,99701.37
2018-07-05T23:08:41.769Z,99702.15
2018-07-05T23:11:22.154Z,99703.89
2018-07-05T23:14:04.317Z,99708.17
2018-07-05T23:16:44.649Z,99705.53
2018-07-05T23:19:25.048Z,99709.83
2018-07-05T23:22:05.425Z,99707.19
2018-07-05T23:24:45.785Z,99708.59
2018-07-05T23:27:26.274Z,99710.46
2018-07-05T23:30:06.659Z,99714.78
2018-07-05T23:32:47.138Z,99710.16
2018-07-05T23:35:27.377Z,99703.30
2018-07-05T23:38:07.839Z,99708.17
2018-07-05T23:40:48.169Z,99706.80
2018-07-05T23:43:28.476Z,99709.61
2018-07-05T23:46:08.773Z,99709.24
2018-07-05T23:48:49.186Z,99706.90
2018-07-05T23:51:29.530Z,99711.39
2018-07-05T23:54:10.111Z,99705.17
2018-07-05T23:56:50.547Z,99711.34
2018-07-05T23:59:30.828Z,99711.69
